Iliamna, AK (99606)

1:27 AM AKDT on September 16, 2014 (GMT -0800)
Iliamna | Change Station
CLOSE
Current Station
Airport
Location: Iliamna,
Elevation: 161 ft
Nearby Weather Stations

Elev 161 ft 59.75 °N, 154.91 °W | Updated 9 minutes ago

Overcast
Overcast
51 °F
Feels Like 51 °F
N
5
Wind Variable Wind from SW

Today
High -- | Low -- °F
--% Chance of Precip.
Yesterday
High -- | Low -- °F
Precip. -- in
7:52 AM 8:38 PM
Waning Gibbous, 47% visible
Pressure 29.67 in
Visibility 10.0 miles
Clouds Scattered Clouds 900 ft
Mostly Cloudy 5000 ft
Overcast 6500 ft
Dew Point 50 °F
Humidity 96%
Rainfall 0.00 in
Snow Depth Not available.
UV 0 out of 12
Pollen Not available.
Air Quality Not available.
Flu Activity Not available.
SPECI PAIL 160918Z AUTO 22004KT 10SM SCT009 BKN050 OVC065 11/10 A2967 RMK AO2 T01060100 TSNO

More Conditions Fewer Conditions

Pressure 29.67 in
Visibility 10.0 miles
Clouds Scattered Clouds 900 ft
Mostly Cloudy 5000 ft
Overcast 6500 ft
Dew Point 50 °F
Humidity 96%
Rainfall 0.00 in
Snow Depth Not available.
UV 0 out of 12
Pollen Not available.
Air Quality Not available.
Flu Activity Not available.
SPECI PAIL 160918Z AUTO 22004KT 10SM SCT009 BKN050 OVC065 11/10 A2967 RMK AO2 T01060100 TSNO

More Conditions Fewer Conditions

10-Day Weather Forecast

Almanac

Astronomy

Sep. 16, 2014 Rise Set
Actual Time 7:52 AM AKDT 8:38 PM AKDT
Civil Twilight 7:10 AM AKDT 9:19 PM AKDT
Nautical Twilight 6:19 AM AKDT 10:10 PM AKDT
Astronomical Twilight 5:22 AM AKDT 11:06 PM AKDT
Moon 12:05 AM AKDT 5:14 PM AKDT
Length of Visible Light 14h 09m
Length of Day
12h 45m
Tomorrow will be 5m 19s shorter.
Waning Gibbous, 47% of the Moon is Illuminated
Today
Waning Gibbous
Sep 24
New
Oct 1
First Quarter
Oct 8
Full
Oct 15
Last Quarter

Today's Extremes

State Highs State Lows

Community

WunderPhotos

Upload Photos

1,753,714 photos uploaded!

WunderBlogs® & News

Nearby

Snow Depth

Station Depth Elevation
MF Bradley River 4 in 2300 ft
Grouse Creek Divide 0 in 700 ft
Upper Tsaina River 0 in 1750 ft
Munson Ridge 1 in 3100 ft
Little Chena Ridge 0 in 2000 ft

Earthquake Activity

City Distance Mag. Time & Date
No recent earthquake activity has been reported nearby.
Minimum magnitude displayed is 2.5.

Coastal Water Temperatures

Place Temperature
No Stations Reporting

Nearby Weather Stations